Terminal Aerodrome Forecast
Issued by NWS

Home | Current Version | Previous Version | Text Only | Print | Product List | Glossary On
Versions: 1 2 3 4 5 6 7 8 9 10 11 12 13 14
000
FTUS44 KLIX 290500
TAFMCB
TAF
KMCB 290522Z 2906/3006 17004KT P6SM FEW250
      TEMPO 2909/2913 5SM BR
     FM291700 21008KT P6SM SCT250
     FM292100 24008KT P6SM BKN110
     FM300200 30005KT P6SM BKN090=

USA.gov is the U.S. government's official web portal to all federal, state and local government web resources and services.